Time;durP1;ratioP1;P1;durP2;ratioP2;P2;SDS_P1;SDS_P2;PMS_P1;PMS_P2;Temp;Humidity;BMP_temperature;BMP_pressure;BME280_temperature;BME280_humidity;BME280_pressure;Samples;Min_cycle;Max_cycle;Signal;HPM_P1;HPM_P2
2022/07/19 00:01:31;;;;;;;3.30;3.10;;;;;;;;;;1876556;75;26796;-86
2022/07/19 00:03:59;;;;;;;3.20;3.00;;;;;;;;;;1893042;75;26365;-85
2022/07/19 00:06:26;;;;;;;3.40;3.20;;;;;;;;;;1882081;75;26208;-84
2022/07/19 00:08:53;;;;;;;3.80;3.50;;;;;;;;;;1883248;75;26287;-85
2022/07/19 00:11:21;;;;;;;3.30;3.10;;;;;;;;;;1898268;75;26272;-84
2022/07/19 00:13:48;;;;;;;3.60;3.30;;;;;;;;;;1895057;73;26284;-85
2022/07/19 00:16:15;;;;;;;3.70;3.40;;;;;;;;;;1894491;75;26244;-85
2022/07/19 00:18:43;;;;;;;3.30;3.10;;;;;;;;;;1895077;75;26190;-85
2022/07/19 00:21:10;;;;;;;3.08;2.87;;;;;;;;;;1892866;73;26276;-85
2022/07/19 00:23:37;;;;;;;3.22;3.02;;;;;;;;;;1894843;75;26225;-85
2022/07/19 00:26:05;;;;;;;3.62;3.42;;;;;;;;;;1898071;73;26240;-86
2022/07/19 00:28:32;;;;;;;3.37;3.20;;;;;;;;;;1894999;75;26292;-86
2022/07/19 00:30:59;;;;;;;3.45;3.25;;;;;;;;;;1880131;74;26771;-86
2022/07/19 00:33:26;;;;;;;3.40;3.10;;;;;;;;;;1884479;75;26628;-86
2022/07/19 00:35:54;;;;;;;3.55;3.30;;;;;;;;;;1893719;75;26582;-86
2022/07/19 00:38:21;;;;;;;3.65;3.35;;;;;;;;;;1884191;75;26570;-87
2022/07/19 00:40:48;;;;;;;3.52;3.22;;;;;;;;;;1882109;75;26643;-84
2022/07/19 00:43:15;;;;;;;3.62;3.30;;;;;;;;;;1885083;75;26611;-86
2022/07/19 00:45:47;;;;;;;3.70;3.40;;;;;;;;;;1879852;75;26164;-85
2022/07/19 00:48:12;;;;;;;3.90;3.60;;;;;;;;;;1879188;75;26204;-85
2022/07/19 00:50:39;;;;;;;3.60;3.40;;;;;;;;;;1881383;75;26160;-86
2022/07/19 00:53:06;;;;;;;3.70;3.40;;;;;;;;;;1892138;75;26199;-86
2022/07/19 00:55:40;;;;;;;4.10;3.80;;;;;;;;;;1895138;75;26169;-86
2022/07/19 00:58:07;;;;;;;4.20;3.80;;;;;;;;;;1885834;75;26274;-86
2022/07/19 01:00:35;;;;;;;3.87;3.58;;;;;;;;;;1881992;75;26647;-86
2022/07/19 01:03:02;;;;;;;3.75;3.45;;;;;;;;;;1875424;76;26242;-85
2022/07/19 01:05:30;;;;;;;4.10;3.80;;;;;;;;;;1887454;75;26193;-86
2022/07/19 01:07:57;;;;;;;4.00;3.70;;;;;;;;;;1893758;75;26268;-86
2022/07/19 01:10:24;;;;;;;3.65;3.37;;;;;;;;;;1887613;74;26692;-85
2022/07/19 01:12:52;;;;;;;3.95;3.65;;;;;;;;;;1872400;75;26210;-85
2022/07/19 01:15:23;;;;;;;3.72;3.42;;;;;;;;;;1877694;75;26214;-85
2022/07/19 01:17:50;;;;;;;3.45;3.15;;;;;;;;;;1882905;75;26300;-86
2022/07/19 01:20:18;;;;;;;3.50;3.20;;;;;;;;;;1868672;75;26180;-86
2022/07/19 01:22:46;;;;;;;3.60;3.33;;;;;;;;;;1898881;75;26191;-86
2022/07/19 01:25:13;;;;;;;3.62;3.33;;;;;;;;;;1870442;75;26200;-86
2022/07/19 01:27:41;;;;;;;3.67;3.40;;;;;;;;;;1892607;75;26169;-87
2022/07/19 01:30:13;;;;;;;3.22;3.02;;;;;;;;;;1892225;75;26195;-84
2022/07/19 01:32:40;;;;;;;3.17;2.98;;;;;;;;;;1885473;74;26623;-85
2022/07/19 01:35:08;;;;;;;3.70;3.40;;;;;;;;;;1894344;75;26205;-86
2022/07/19 01:37:35;;;;;;;3.25;3.05;;;;;;;;;;1903962;75;26652;-86
2022/07/19 01:40:07;;;;;;;4.17;3.30;;;;;;;;;;1882765;75;26265;-86
2022/07/19 01:42:34;;;;;;;3.50;3.30;;;;;;;;;;1899223;75;26345;-86
2022/07/19 01:45:01;;;;;;;2.77;2.67;;;;;;;;;;1901737;75;26270;-86
2022/07/19 01:47:29;;;;;;;3.50;3.30;;;;;;;;;;1889568;75;26588;-86
2022/07/19 01:49:56;;;;;;;3.02;2.87;;;;;;;;;;1876138;76;26193;-86
2022/07/19 01:52:23;;;;;;;3.47;3.20;;;;;;;;;;1881198;75;26260;-87
2022/07/19 01:54:50;;;;;;;3.67;3.37;;;;;;;;;;1889172;75;26242;-86
2022/07/19 01:57:18;;;;;;;3.35;3.15;;;;;;;;;;1884829;75;26616;-85
2022/07/19 01:59:45;;;;;;;3.42;3.12;;;;;;;;;;1878186;75;26210;-86
2022/07/19 02:02:12;;;;;;;3.10;2.95;;;;;;;;;;1893359;75;26262;-86
2022/07/19 02:04:39;;;;;;;3.47;3.25;;;;;;;;;;1877349;75;26191;-86
2022/07/19 02:07:07;;;;;;;3.65;3.33;;;;;;;;;;1889308;75;26203;-86
2022/07/19 02:09:34;;;;;;;3.67;3.40;;;;;;;;;;1889140;75;27017;-85
2022/07/19 02:12:01;;;;;;;3.35;3.15;;;;;;;;;;1878194;75;26239;-85
2022/07/19 02:14:29;;;;;;;3.20;3.00;;;;;;;;;;1895909;75;26191;-86
2022/07/19 02:16:57;;;;;;;3.52;3.30;;;;;;;;;;1885443;75;26175;-86
2022/07/19 02:19:24;;;;;;;6.28;3.20;;;;;;;;;;1873374;75;26967;-86
2022/07/19 02:21:51;;;;;;;3.47;3.20;;;;;;;;;;1884533;75;26649;-86
2022/07/19 02:24:19;;;;;;;3.00;2.83;;;;;;;;;;1867602;75;26202;-86
2022/07/19 02:26:46;;;;;;;3.45;3.17;;;;;;;;;;1882317;75;26185;-86
2022/07/19 02:29:13;;;;;;;3.30;3.00;;;;;;;;;;1882589;75;26218;-86
2022/07/19 02:31:41;;;;;;;3.47;3.27;;;;;;;;;;1889723;75;26607;-87
2022/07/19 02:34:08;;;;;;;3.20;3.00;;;;;;;;;;1891861;75;26274;-86
2022/07/19 02:36:35;;;;;;;3.30;3.00;;;;;;;;;;1882051;74;26230;-86
2022/07/19 02:39:03;;;;;;;3.15;2.95;;;;;;;;;;1895975;75;26298;-85
2022/07/19 02:41:31;;;;;;;3.10;2.90;;;;;;;;;;1882156;75;26202;-85
2022/07/19 02:43:58;;;;;;;3.10;2.90;;;;;;;;;;1881852;75;26176;-85
2022/07/19 02:46:26;;;;;;;3.30;3.00;;;;;;;;;;1887788;76;26187;-86
2022/07/19 02:48:53;;;;;;;3.12;2.92;;;;;;;;;;1891545;75;26212;-86
2022/07/19 02:51:20;;;;;;;3.30;3.00;;;;;;;;;;1885538;75;26218;-87
2022/07/19 02:53:47;;;;;;;3.47;3.17;;;;;;;;;;1879769;75;26170;-86
2022/07/19 02:56:15;;;;;;;3.10;2.90;;;;;;;;;;1890340;75;26237;-86
2022/07/19 02:58:42;;;;;;;3.27;3.00;;;;;;;;;;1891262;75;26187;-86
2022/07/19 03:01:09;;;;;;;3.02;2.83;;;;;;;;;;1873571;75;26166;-87
2022/07/19 03:03:50;;;;;;;3.27;3.08;;;;;;;;;;1884676;75;26199;-86
2022/07/19 03:06:19;;;;;;;3.30;3.00;;;;;;;;;;1893137;75;26154;-85
2022/07/19 03:08:46;;;;;;;3.10;2.90;;;;;;;;;;1863520;76;26617;-86
2022/07/19 03:11:14;;;;;;;3.08;2.90;;;;;;;;;;1885317;75;26157;-86
2022/07/19 03:13:41;;;;;;;2.75;2.55;;;;;;;;;;1873522;75;26182;-85
2022/07/19 03:16:08;;;;;;;3.02;2.83;;;;;;;;;;1894638;75;26203;-86
2022/07/19 03:18:35;;;;;;;3.27;3.00;;;;;;;;;;1868300;75;26295;-86
2022/07/19 03:21:03;;;;;;;3.40;3.10;;;;;;;;;;1883193;74;26635;-86
2022/07/19 03:23:34;;;;;;;3.58;3.20;;;;;;;;;;1889015;75;26208;-86
2022/07/19 03:26:02;;;;;;;3.37;3.17;;;;;;;;;;1886297;75;26277;-85
2022/07/19 03:28:29;;;;;;;3.00;2.80;;;;;;;;;;1887702;75;26578;-86
2022/07/19 03:30:56;;;;;;;3.75;2.92;;;;;;;;;;1891318;75;26258;-84
2022/07/19 03:33:24;;;;;;;2.80;2.70;;;;;;;;;;1883983;74;26667;-85
2022/07/19 03:35:51;;;;;;;3.42;3.12;;;;;;;;;;1898978;74;26276;-84
2022/07/19 03:38:18;;;;;;;3.40;3.20;;;;;;;;;;1891870;75;26214;-86
2022/07/19 03:40:50;;;;;;;3.10;2.90;;;;;;;;;;1877686;74;26243;-85
2022/07/19 03:43:16;;;;;;;3.55;3.05;;;;;;;;;;1876207;75;26220;-86
2022/07/19 03:45:44;;;;;;;3.15;2.95;;;;;;;;;;1877832;75;26173;-86
2022/07/19 03:48:11;;;;;;;3.12;2.92;;;;;;;;;;1895540;75;26647;-86
2022/07/19 03:50:38;;;;;;;3.42;3.20;;;;;;;;;;1886686;75;26291;-87
2022/07/19 03:53:06;;;;;;;4.08;3.30;;;;;;;;;;1885879;75;26332;-86
2022/07/19 03:55:34;;;;;;;3.35;3.08;;;;;;;;;;1871442;75;26929;-86
2022/07/19 03:58:02;;;;;;;2.95;2.80;;;;;;;;;;1892511;75;26613;-87
2022/07/19 04:00:29;;;;;;;3.47;3.00;;;;;;;;;;1893382;75;26241;-86
2022/07/19 04:02:56;;;;;;;3.33;3.02;;;;;;;;;;1884351;76;26210;-85
2022/07/19 04:05:24;;;;;;;3.30;3.00;;;;;;;;;;1884321;75;26659;-86
2022/07/19 04:07:51;;;;;;;2.85;2.65;;;;;;;;;;1888314;75;26297;-87
2022/07/19 04:10:18;;;;;;;3.50;3.08;;;;;;;;;;1876209;75;26277;-87
2022/07/19 04:12:46;;;;;;;3.40;2.87;;;;;;;;;;1897585;75;26255;-85
2022/07/19 04:15:13;;;;;;;3.25;3.05;;;;;;;;;;1892136;75;26246;-86
2022/07/19 04:17:40;;;;;;;3.77;2.75;;;;;;;;;;1885633;75;26277;-86
2022/07/19 04:20:08;;;;;;;3.42;3.17;;;;;;;;;;1900152;75;26277;-86
2022/07/19 04:22:35;;;;;;;3.20;2.95;;;;;;;;;;1870851;75;26808;-86
2022/07/19 04:25:02;;;;;;;3.33;3.02;;;;;;;;;;1894446;75;26374;-86
2022/07/19 04:27:34;;;;;;;2.98;2.72;;;;;;;;;;1896468;75;26200;-85
2022/07/19 04:29:59;;;;;;;3.10;2.90;;;;;;;;;;1879984;75;26196;-85
2022/07/19 04:32:27;;;;;;;3.33;3.02;;;;;;;;;;1890463;76;26632;-86
2022/07/19 04:34:55;;;;;;;3.37;3.05;;;;;;;;;;1892524;75;26623;-87
2022/07/19 04:37:22;;;;;;;3.00;2.80;;;;;;;;;;1884001;75;26211;-87
2022/07/19 04:39:51;;;;;;;2.95;2.75;;;;;;;;;;1866230;75;26214;-86
2022/07/19 04:42:18;;;;;;;3.00;2.70;;;;;;;;;;1868543;75;26655;-85
2022/07/19 04:44:45;;;;;;;2.80;2.70;;;;;;;;;;1888568;74;26199;-85
2022/07/19 04:47:13;;;;;;;3.55;3.25;;;;;;;;;;1877265;75;26194;-87
2022/07/19 04:49:40;;;;;;;3.00;2.80;;;;;;;;;;1892460;75;26629;-87
2022/07/19 04:52:07;;;;;;;2.75;2.60;;;;;;;;;;1877406;75;26691;-86
2022/07/19 04:54:34;;;;;;;2.92;2.72;;;;;;;;;;1880869;76;26172;-86
2022/07/19 04:57:02;;;;;;;3.58;2.58;;;;;;;;;;1894699;75;26207;-86
2022/07/19 04:59:29;;;;;;;2.95;2.75;;;;;;;;;;1889937;75;26250;-87
2022/07/19 05:01:56;;;;;;;2.70;2.50;;;;;;;;;;1889700;75;26194;-87
2022/07/19 05:04:23;;;;;;;2.65;2.50;;;;;;;;;;1894451;75;26168;-87
2022/07/19 05:06:56;;;;;;;2.62;2.52;;;;;;;;;;1898618;75;26173;-88
2022/07/19 05:09:20;;;;;;;2.60;2.50;;;;;;;;;;1884794;75;26224;-88
2022/07/19 05:11:47;;;;;;;2.42;2.33;;;;;;;;;;1881754;75;26188;-87
2022/07/19 05:14:16;;;;;;;2.37;2.27;;;;;;;;;;1878780;75;26187;-87
2022/07/19 05:16:44;;;;;;;2.65;2.55;;;;;;;;;;1891641;74;26211;-87
2022/07/19 05:19:12;;;;;;;2.50;2.40;;;;;;;;;;1886427;74;26210;-86
2022/07/19 05:21:39;;;;;;;2.40;2.30;;;;;;;;;;1894617;74;26172;-87
2022/07/19 05:24:06;;;;;;;2.60;2.50;;;;;;;;;;1911247;74;26188;-85
2022/07/19 05:26:35;;;;;;;2.40;2.30;;;;;;;;;;1861585;75;26196;-86
2022/07/19 05:29:03;;;;;;;2.37;2.27;;;;;;;;;;1894675;75;26235;-86
2022/07/19 05:31:30;;;;;;;2.52;2.42;;;;;;;;;;1894710;75;26257;-87
2022/07/19 05:33:57;;;;;;;2.72;2.62;;;;;;;;;;1897341;75;26174;-86
2022/07/19 05:36:25;;;;;;;2.60;2.50;;;;;;;;;;1886648;75;26697;-86
2022/07/19 05:38:53;;;;;;;2.90;2.52;;;;;;;;;;1887753;75;26276;-87
2022/07/19 05:41:21;;;;;;;2.62;2.50;;;;;;;;;;1903805;74;26211;-87
2022/07/19 05:43:49;;;;;;;2.50;2.30;;;;;;;;;;1868528;74;26235;-86
2022/07/19 05:46:17;;;;;;;2.83;2.65;;;;;;;;;;1885124;75;26234;-87
2022/07/19 05:48:44;;;;;;;2.70;2.50;;;;;;;;;;1890581;75;26129;-86
2022/07/19 05:51:11;;;;;;;2.95;2.60;;;;;;;;;;1887640;75;26329;-86
2022/07/19 05:53:39;;;;;;;2.60;2.40;;;;;;;;;;1890451;74;26600;-86
2022/07/19 05:56:07;;;;;;;2.77;2.67;;;;;;;;;;1885083;74;26168;-86
2022/07/19 05:58:34;;;;;;;3.00;2.80;;;;;;;;;;1886171;74;26842;-86
2022/07/19 06:01:22;;;;;;;2.85;2.65;;;;;;;;;;1888938;74;26244;-87
2022/07/19 06:03:51;;;;;;;3.17;2.95;;;;;;;;;;1878824;75;26293;-87
2022/07/19 06:06:18;;;;;;;3.02;2.80;;;;;;;;;;1875415;75;26612;-87
2022/07/19 06:08:46;;;;;;;2.98;2.77;;;;;;;;;;1882917;76;26203;-87
2022/07/19 06:11:14;;;;;;;2.83;2.62;;;;;;;;;;1888645;74;26204;-86
2022/07/19 06:13:42;;;;;;;3.00;2.80;;;;;;;;;;1887109;74;26683;-85
2022/07/19 06:16:10;;;;;;;2.67;2.50;;;;;;;;;;1895180;74;26308;-86
2022/07/19 06:18:37;;;;;;;2.98;2.77;;;;;;;;;;1889199;74;26830;-86
2022/07/19 06:21:06;;;;;;;3.15;2.90;;;;;;;;;;1889776;74;26632;-87
2022/07/19 06:23:33;;;;;;;3.12;2.90;;;;;;;;;;1871741;75;26284;-87
2022/07/19 06:26:01;;;;;;;3.05;2.85;;;;;;;;;;1884052;74;26231;-86
2022/07/19 06:28:28;;;;;;;3.00;2.80;;;;;;;;;;1875988;74;26296;-87
2022/07/19 06:30:55;;;;;;;2.85;2.65;;;;;;;;;;1888880;75;26236;-87
2022/07/19 06:33:23;;;;;;;3.08;2.87;;;;;;;;;;1881443;75;26293;-86
2022/07/19 06:35:50;;;;;;;3.00;2.80;;;;;;;;;;1872787;75;26211;-88
2022/07/19 06:38:17;;;;;;;3.20;3.00;;;;;;;;;;1885368;75;26651;-89
2022/07/19 06:40:45;;;;;;;3.33;3.12;;;;;;;;;;1880466;75;26214;-85
2022/07/19 06:43:12;;;;;;;3.12;2.92;;;;;;;;;;1879568;75;26309;-86
2022/07/19 06:45:39;;;;;;;3.35;3.05;;;;;;;;;;1890066;75;26176;-86
2022/07/19 06:48:07;;;;;;;3.70;3.02;;;;;;;;;;1888517;75;26155;-85
2022/07/19 06:50:34;;;;;;;3.20;2.98;;;;;;;;;;1886335;75;26168;-87
2022/07/19 06:53:01;;;;;;;3.40;3.10;;;;;;;;;;1880074;74;26999;-85
2022/07/19 06:55:29;;;;;;;3.10;2.90;;;;;;;;;;1889269;75;26282;-86
2022/07/19 06:57:56;;;;;;;3.15;2.90;;;;;;;;;;1889015;75;26743;-87
2022/07/19 07:00:23;;;;;;;3.20;3.00;;;;;;;;;;1885721;75;26220;-88
2022/07/19 07:02:51;;;;;;;3.22;2.95;;;;;;;;;;1886643;75;26269;-87
2022/07/19 07:05:18;;;;;;;3.27;3.08;;;;;;;;;;1883827;75;26669;-86
2022/07/19 07:07:47;;;;;;;3.52;3.22;;;;;;;;;;1893944;75;26270;-85
2022/07/19 07:10:14;;;;;;;3.05;2.85;;;;;;;;;;1889160;75;26168;-86
2022/07/19 07:12:41;;;;;;;3.20;3.00;;;;;;;;;;1883226;75;26255;-86
2022/07/19 07:15:09;;;;;;;3.65;3.30;;;;;;;;;;1887159;75;26331;-86
2022/07/19 07:17:37;;;;;;;3.17;2.98;;;;;;;;;;1885108;76;26242;-86
2022/07/19 07:20:05;;;;;;;3.50;3.30;;;;;;;;;;1892424;75;26303;-86
2022/07/19 07:22:33;;;;;;;3.42;3.20;;;;;;;;;;1892372;75;26327;-86
2022/07/19 07:25:01;;;;;;;11.78;3.77;;;;;;;;;;1887469;75;26209;-86
2022/07/19 07:27:28;;;;;;;4.40;3.20;;;;;;;;;;1877903;75;26273;-86
2022/07/19 07:29:55;;;;;;;4.08;3.62;;;;;;;;;;1892127;75;26226;-85
2022/07/19 07:32:22;;;;;;;3.40;3.20;;;;;;;;;;1892457;75;26334;-85
2022/07/19 07:34:50;;;;;;;3.67;3.47;;;;;;;;;;1883784;75;26641;-85
2022/07/19 07:37:17;;;;;;;3.65;3.35;;;;;;;;;;1887348;75;26680;-85
2022/07/19 07:39:44;;;;;;;4.05;3.30;;;;;;;;;;1889489;75;26215;-87
2022/07/19 07:42:11;;;;;;;3.87;3.58;;;;;;;;;;1886332;75;26198;-86
2022/07/19 07:44:39;;;;;;;3.40;3.10;;;;;;;;;;1886076;74;26264;-85
2022/07/19 07:47:11;;;;;;;3.52;3.22;;;;;;;;;;1886732;75;26306;-85
2022/07/19 07:49:38;;;;;;;4.87;3.70;;;;;;;;;;1892200;75;26725;-87
2022/07/19 07:52:06;;;;;;;5.62;3.67;;;;;;;;;;1888555;74;26281;-87
2022/07/19 07:54:34;;;;;;;12.35;4.30;;;;;;;;;;1883825;74;26256;-87
2022/07/19 07:57:01;;;;;;;7.78;3.62;;;;;;;;;;1886874;75;26216;-87
2022/07/19 07:59:28;;;;;;;4.70;3.87;;;;;;;;;;1881536;75;26324;-86
2022/07/19 08:01:56;;;;;;;4.37;3.45;;;;;;;;;;1889053;75;26836;-85
2022/07/19 08:04:23;;;;;;;11.30;3.92;;;;;;;;;;1886466;75;26356;-87
2022/07/19 08:06:50;;;;;;;4.45;3.33;;;;;;;;;;1890707;74;26279;-87
2022/07/19 08:09:18;;;;;;;5.58;3.77;;;;;;;;;;1893804;74;26328;-86
2022/07/19 08:11:45;;;;;;;4.70;3.37;;;;;;;;;;1883329;75;26752;-86
2022/07/19 08:14:13;;;;;;;4.67;3.40;;;;;;;;;;1886290;74;26344;-86
2022/07/19 08:16:40;;;;;;;6.37;3.52;;;;;;;;;;1887303;75;26231;-86
2022/07/19 08:19:07;;;;;;;4.70;3.67;;;;;;;;;;1885909;75;26196;-86
2022/07/19 08:21:34;;;;;;;4.12;3.30;;;;;;;;;;1880607;75;26388;-86
2022/07/19 08:24:02;;;;;;;4.45;3.58;;;;;;;;;;1876759;75;26199;-86
2022/07/19 08:26:31;;;;;;;6.60;3.40;;;;;;;;;;1896883;74;26245;-86
2022/07/19 08:28:58;;;;;;;3.47;3.17;;;;;;;;;;1886694;73;26324;-87
2022/07/19 08:31:25;;;;;;;3.40;3.10;;;;;;;;;;1885921;75;26270;-86
2022/07/19 08:33:53;;;;;;;3.98;3.62;;;;;;;;;;1889264;75;26833;-87
2022/07/19 08:36:20;;;;;;;3.85;3.40;;;;;;;;;;1895915;75;26299;-87
2022/07/19 08:38:47;;;;;;;3.33;3.02;;;;;;;;;;1891831;75;26233;-87
2022/07/19 08:41:15;;;;;;;3.33;3.02;;;;;;;;;;1898031;75;26272;-87
2022/07/19 08:43:43;;;;;;;3.50;3.20;;;;;;;;;;1890410;75;26271;-87
2022/07/19 08:46:12;;;;;;;3.37;3.08;;;;;;;;;;1895111;75;26228;-86
2022/07/19 08:48:39;;;;;;;3.22;3.02;;;;;;;;;;1887577;75;26168;-87
2022/07/19 08:51:08;;;;;;;3.30;3.10;;;;;;;;;;1895606;74;26271;-86
2022/07/19 08:53:40;;;;;;;3.27;3.00;;;;;;;;;;1894158;73;26242;-84
2022/07/19 08:57:56;;;;;;;4.30;3.08;;;;;;;;;;1891880;74;26255;-86
2022/07/19 08:58:35;;;;;;;3.30;3.10;;;;;;;;;;1872910;73;26202;-88
2022/07/19 09:01:02;;;;;;;4.55;3.10;;;;;;;;;;1877065;73;26228;-87
2022/07/19 09:03:30;;;;;;;3.50;2.95;;;;;;;;;;1886173;72;26190;-85
2022/07/19 09:06:04;;;;;;;3.08;2.80;;;;;;;;;;1890132;74;26231;-86
2022/07/19 09:08:33;;;;;;;3.08;2.70;;;;;;;;;;1892426;74;26188;-86
2022/07/19 09:11:15;;;;;;;6.58;2.83;;;;;;;;;;1882807;75;26281;-84
2022/07/19 09:13:44;;;;;;;4.70;2.95;;;;;;;;;;1888485;75;26297;-85
2022/07/19 09:16:11;;;;;;;2.95;2.70;;;;;;;;;;1883205;75;26282;-86
2022/07/19 09:18:38;;;;;;;3.12;2.60;;;;;;;;;;1887431;75;26270;-85
2022/07/19 09:21:06;;;;;;;5.20;2.70;;;;;;;;;;1880008;76;26265;-86
2022/07/19 09:23:34;;;;;;;5.83;2.70;;;;;;;;;;1880587;75;26252;-86
2022/07/19 09:26:03;;;;;;;3.15;2.50;;;;;;;;;;1880808;75;26206;-87
2022/07/19 09:28:32;;;;;;;3.08;2.40;;;;;;;;;;1882286;75;26249;-86
2022/07/19 09:31:00;;;;;;;3.08;2.45;;;;;;;;;;1881387;75;26308;-86
2022/07/19 09:33:28;;;;;;;6.00;2.27;;;;;;;;;;1884445;75;26204;-86
2022/07/19 09:35:57;;;;;;;18.30;2.40;;;;;;;;;;1887198;75;26226;-87
2022/07/19 09:38:25;;;;;;;2.80;2.60;;;;;;;;;;1881776;74;26316;-85
2022/07/19 09:40:54;;;;;;;4.42;2.20;;;;;;;;;;1917993;74;26221;-85
2022/07/19 09:43:24;;;;;;;2.35;2.10;;;;;;;;;;1904571;74;26730;-86
2022/07/19 09:45:51;;;;;;;2.98;2.10;;;;;;;;;;1899333;74;26734;-84
2022/07/19 09:48:18;;;;;;;2.20;2.10;;;;;;;;;;1889299;74;26206;-86
2022/07/19 09:50:47;;;;;;;2.27;2.17;;;;;;;;;;1889922;74;26213;-86
2022/07/19 09:53:15;;;;;;;3.40;1.98;;;;;;;;;;1891605;74;26289;-87
2022/07/19 09:55:43;;;;;;;2.10;2.00;;;;;;;;;;1887785;73;26344;-86
2022/07/19 09:58:10;;;;;;;2.08;1.90;;;;;;;;;;1883485;75;26770;-85
2022/07/19 10:00:38;;;;;;;2.02;1.92;;;;;;;;;;1886467;75;26187;-85
2022/07/19 10:03:07;;;;;;;2.10;1.95;;;;;;;;;;1891320;74;26175;-86
2022/07/19 10:05:35;;;;;;;2.10;2.00;;;;;;;;;;1876460;75;26297;-86
2022/07/19 10:08:02;;;;;;;6.08;1.90;;;;;;;;;;1889429;75;26671;-84
2022/07/19 10:10:30;;;;;;;2.10;1.90;;;;;;;;;;1873582;75;26318;-85
2022/07/19 10:12:58;;;;;;;1.90;1.80;;;;;;;;;;1875840;75;26230;-85
2022/07/19 10:15:26;;;;;;;1.85;1.85;;;;;;;;;;1888065;75;26192;-85
2022/07/19 10:17:55;;;;;;;2.08;1.90;;;;;;;;;;1897817;74;26224;-83
2022/07/19 10:20:24;;;;;;;2.05;1.90;;;;;;;;;;1894196;74;26672;-84
2022/07/19 10:22:51;;;;;;;3.20;1.60;;;;;;;;;;1885129;74;26254;-84
2022/07/19 10:25:19;;;;;;;2.00;1.90;;;;;;;;;;1886000;74;26316;-84
2022/07/19 10:27:48;;;;;;;1.77;1.72;;;;;;;;;;1892610;75;26671;-87
2022/07/19 10:30:16;;;;;;;1.72;1.62;;;;;;;;;;1887451;74;26175;-85
2022/07/19 10:32:44;;;;;;;2.05;1.82;;;;;;;;;;1888501;75;27088;-86
2022/07/19 10:35:19;;;;;;;1.60;1.60;;;;;;;;;;1897067;74;26198;-85
2022/07/19 10:37:47;;;;;;;1.90;1.80;;;;;;;;;;1889857;75;26257;-85
2022/07/19 10:40:16;;;;;;;1.77;1.67;;;;;;;;;;1878296;75;26179;-86
2022/07/19 10:43:01;;;;;;;1.80;1.70;;;;;;;;;;1876802;75;26278;-86
2022/07/19 10:45:28;;;;;;;1.80;1.70;;;;;;;;;;1904509;74;26189;-86
2022/07/19 10:47:59;;;;;;;1.95;1.85;;;;;;;;;;1893296;74;26678;-86
2022/07/19 10:50:28;;;;;;;2.70;1.60;;;;;;;;;;1893986;74;26293;-85
2022/07/19 10:52:55;;;;;;;1.87;1.77;;;;;;;;;;1892112;75;26196;-85
2022/07/19 10:55:28;;;;;;;4.33;1.70;;;;;;;;;;1893680;74;26314;-88
2022/07/19 10:58:08;;;;;;;2.58;1.65;;;;;;;;;;1885284;74;26267;-85
2022/07/19 11:00:47;;;;;;;3.55;1.60;;;;;;;;;;1888749;74;26710;-85
2022/07/19 11:03:25;;;;;;;2.50;1.77;;;;;;;;;;1884582;75;26217;-83
2022/07/19 11:05:54;;;;;;;2.15;1.60;;;;;;;;;;1889225;74;26314;-84
2022/07/19 11:08:37;;;;;;;2.90;1.60;;;;;;;;;;1876039;75;26313;-84
2022/07/19 11:11:09;;;;;;;2.60;1.75;;;;;;;;;;1879285;75;26820;-84
2022/07/19 11:13:37;;;;;;;1.42;1.42;;;;;;;;;;1892031;75;26317;-88
2022/07/19 11:16:04;;;;;;;1.70;1.60;;;;;;;;;;1880867;75;26253;-87
2022/07/19 11:18:32;;;;;;;1.47;1.40;;;;;;;;;;1880980;75;26215;-91
2022/07/19 11:21:03;;;;;;;1.65;1.55;;;;;;;;;;1877987;75;26259;-86
2022/07/19 11:23:32;;;;;;;2.00;1.50;;;;;;;;;;1885118;75;26257;-84
2022/07/19 11:26:06;;;;;;;1.50;1.40;;;;;;;;;;1883750;74;26241;-85
2022/07/19 11:28:33;;;;;;;1.30;1.30;;;;;;;;;;1891779;75;26207;-84
2022/07/19 11:31:01;;;;;;;1.50;1.50;;;;;;;;;;1875268;75;26314;-85
2022/07/19 11:33:28;;;;;;;1.67;1.45;;;;;;;;;;1872781;76;26273;-84
2022/07/19 11:35:57;;;;;;;1.42;1.40;;;;;;;;;;1887921;75;26711;-85
2022/07/19 11:38:26;;;;;;;1.60;1.50;;;;;;;;;;1891995;75;26721;-85
2022/07/19 11:40:53;;;;;;;1.70;1.60;;;;;;;;;;1881395;75;26724;-84
2022/07/19 11:43:22;;;;;;;1.62;1.52;;;;;;;;;;1893872;75;26272;-85
2022/07/19 11:45:50;;;;;;;1.67;1.50;;;;;;;;;;1881479;75;26195;-84
2022/07/19 11:48:27;;;;;;;1.20;1.20;;;;;;;;;;1895441;74;26218;-85
2022/07/19 11:51:07;;;;;;;1.42;1.40;;;;;;;;;;1874351;75;26242;-85
2022/07/19 11:53:36;;;;;;;1.47;1.40;;;;;;;;;;1886056;75;26644;-85
2022/07/19 11:56:04;;;;;;;1.30;1.30;;;;;;;;;;1880488;74;26174;-85
2022/07/19 11:58:31;;;;;;;1.65;1.25;;;;;;;;;;1887464;75;26209;-85
2022/07/19 12:01:05;;;;;;;1.20;1.20;;;;;;;;;;1887879;75;26178;-88
2022/07/19 12:03:33;;;;;;;1.45;1.42;;;;;;;;;;1893430;74;26309;-85
2022/07/19 12:06:01;;;;;;;1.50;1.40;;;;;;;;;;1888795;74;26181;-85
2022/07/19 12:08:33;;;;;;;1.57;1.47;;;;;;;;;;1892676;74;26345;-85
2022/07/19 12:11:00;;;;;;;1.52;1.42;;;;;;;;;;1883560;74;26690;-86
2022/07/19 12:13:31;;;;;;;1.42;1.30;;;;;;;;;;1887444;74;26183;-85
2022/07/19 12:16:03;;;;;;;1.30;1.30;;;;;;;;;;1893586;74;26167;-87
2022/07/19 12:18:49;;;;;;;1.52;1.10;;;;;;;;;;1892237;75;26181;-85
2022/07/19 12:21:18;;;;;;;2.05;1.30;;;;;;;;;;1883406;75;26286;-87
2022/07/19 12:24:03;;;;;;;1.30;1.25;;;;;;;;;;1886346;75;26189;-85
2022/07/19 12:26:30;;;;;;;1.30;1.30;;;;;;;;;;1891092;75;26406;-85
2022/07/19 12:28:57;;;;;;;1.40;1.37;;;;;;;;;;1880797;75;26198;-85
2022/07/19 12:31:25;;;;;;;1.40;1.30;;;;;;;;;;1873624;74;26210;-86
2022/07/19 12:33:59;;;;;;;1.32;1.32;;;;;;;;;;1882081;75;26692;-89
2022/07/19 12:36:36;;;;;;;1.30;1.30;;;;;;;;;;1883352;75;26191;-85
2022/07/19 12:39:04;;;;;;;1.22;1.22;;;;;;;;;;1884422;75;26207;-85
2022/07/19 12:41:31;;;;;;;1.30;1.20;;;;;;;;;;1893976;75;26188;-85
2022/07/19 12:43:59;;;;;;;1.30;1.30;;;;;;;;;;1896499;74;26196;-86
2022/07/19 12:46:26;;;;;;;1.22;1.12;;;;;;;;;;1871618;75;26218;-84
2022/07/19 12:48:53;;;;;;;1.25;1.25;;;;;;;;;;1893212;75;26362;-84
2022/07/19 12:51:20;;;;;;;2.05;1.30;;;;;;;;;;1880651;75;26192;-86
2022/07/19 12:53:48;;;;;;;3.05;1.72;;;;;;;;;;1895906;75;26286;-88
2022/07/19 12:56:15;;;;;;;2.25;1.32;;;;;;;;;;1889796;75;26217;-88
2022/07/19 13:01:27;;;;;;;1.40;1.30;;;;;;;;;;1903822;75;26201;-89
2022/07/19 13:03:55;;;;;;;1.40;1.30;;;;;;;;;;1884718;75;26184;-87
2022/07/19 13:06:22;;;;;;;1.50;1.40;;;;;;;;;;1870715;75;26244;-86
2022/07/19 13:08:49;;;;;;;1.45;1.45;;;;;;;;;;1868267;76;26214;-87
2022/07/19 13:11:17;;;;;;;1.50;1.40;;;;;;;;;;1893256;75;26668;-85
2022/07/19 13:13:44;;;;;;;1.70;1.40;;;;;;;;;;1873147;75;26251;-87
2022/07/19 13:16:11;;;;;;;1.30;1.30;;;;;;;;;;1886893;75;26240;-88
2022/07/19 13:18:38;;;;;;;1.50;1.50;;;;;;;;;;1880280;75;26233;-88
2022/07/19 13:21:06;;;;;;;4.67;1.47;;;;;;;;;;1889836;75;26235;-88
2022/07/19 13:23:33;;;;;;;2.35;1.40;;;;;;;;;;1881240;74;26761;-88
2022/07/19 13:26:00;;;;;;;1.20;1.20;;;;;;;;;;1887679;75;26240;-87
2022/07/19 13:28:28;;;;;;;1.40;1.40;;;;;;;;;;1897621;75;26208;-88
2022/07/19 13:30:55;;;;;;;1.65;1.30;;;;;;;;;;1895380;75;26843;-87
2022/07/19 13:33:22;;;;;;;1.30;1.25;;;;;;;;;;1892770;75;26278;-87
2022/07/19 13:35:49;;;;;;;1.50;1.50;;;;;;;;;;1890794;75;26298;-87
2022/07/19 13:38:17;;;;;;;3.33;1.10;;;;;;;;;;1898574;74;26353;-85
2022/07/19 13:40:44;;;;;;;2.15;1.20;;;;;;;;;;1893303;75;26688;-87
2022/07/19 13:43:11;;;;;;;1.20;1.20;;;;;;;;;;1896879;75;26224;-87
2022/07/19 13:45:39;;;;;;;1.20;1.20;;;;;;;;;;1882056;74;26260;-86
2022/07/19 13:48:06;;;;;;;1.37;1.27;;;;;;;;;;1891436;75;26208;-86
2022/07/19 13:50:33;;;;;;;2.10;1.17;;;;;;;;;;1894561;74;26332;-86
2022/07/19 13:53:01;;;;;;;1.50;1.00;;;;;;;;;;1895721;74;26265;-86
2022/07/19 13:55:28;;;;;;;1.20;1.20;;;;;;;;;;1892858;75;26220;-88
2022/07/19 13:57:55;;;;;;;1.55;1.10;;;;;;;;;;1895337;75;26224;-88
2022/07/19 14:00:23;;;;;;;3.75;1.12;;;;;;;;;;1908047;75;26748;-90
2022/07/19 14:02:51;;;;;;;1.40;1.30;;;;;;;;;;1888484;75;26189;-88
2022/07/19 14:05:18;;;;;;;1.85;1.05;;;;;;;;;;1890671;75;26232;-88
2022/07/19 14:07:45;;;;;;;1.05;1.05;;;;;;;;;;1906045;75;26227;-88
2022/07/19 14:10:13;;;;;;;1.30;1.00;;;;;;;;;;1888771;75;26432;-87
2022/07/19 14:12:40;;;;;;;1.17;1.10;;;;;;;;;;1891402;74;26217;-88
2022/07/19 14:15:07;;;;;;;0.93;0.93;;;;;;;;;;1882177;75;26357;-87
2022/07/19 14:17:35;;;;;;;0.98;0.95;;;;;;;;;;1890886;74;26231;-86
2022/07/19 14:20:02;;;;;;;1.85;0.80;;;;;;;;;;1881686;74;26247;-88
2022/07/19 14:22:29;;;;;;;3.60;0.90;;;;;;;;;;1879787;75;26876;-85
2022/07/19 14:24:57;;;;;;;2.60;1.00;;;;;;;;;;1891387;74;26318;-86
2022/07/19 14:27:24;;;;;;;0.80;0.80;;;;;;;;;;1892063;73;26375;-87
2022/07/19 14:29:51;;;;;;;1.05;1.00;;;;;;;;;;1884338;75;26742;-88
2022/07/19 14:32:19;;;;;;;1.30;0.90;;;;;;;;;;1891216;74;26758;-86
2022/07/19 14:34:46;;;;;;;0.90;0.90;;;;;;;;;;1888410;74;26254;-87
2022/07/19 14:37:13;;;;;;;0.98;0.85;;;;;;;;;;1887845;74;26197;-87
2022/07/19 14:39:41;;;;;;;1.72;0.90;;;;;;;;;;1884203;74;26669;-88
2022/07/19 14:42:08;;;;;;;1.20;1.07;;;;;;;;;;1885044;74;26288;-89
2022/07/19 14:44:35;;;;;;;0.80;0.80;;;;;;;;;;1900739;73;26206;-88
2022/07/19 14:47:03;;;;;;;0.78;0.78;;;;;;;;;;1897681;74;26248;-87
2022/07/19 14:49:30;;;;;;;2.77;0.90;;;;;;;;;;1889167;74;26201;-86
2022/07/19 14:51:57;;;;;;;0.60;0.60;;;;;;;;;;1895815;74;26234;-86